createdAt,value
2018-06-11T00:00:12.169Z,0
2018-06-11T00:01:13.837Z,0
2018-06-11T00:02:15.495Z,0
2018-06-11T00:03:17.156Z,0
2018-06-11T00:04:18.814Z,0
2018-06-11T00:05:20.477Z,0
2018-06-11T00:06:22.142Z,0
2018-06-11T00:07:23.801Z,0
2018-06-11T00:08:25.446Z,0
2018-06-11T00:09:27.125Z,0
2018-06-11T00:10:28.785Z,0
2018-06-11T00:11:30.443Z,0
2018-06-11T00:12:32.102Z,0
2018-06-11T00:13:33.764Z,0
2018-06-11T00:14:35.420Z,0
2018-06-11T00:15:37.083Z,0
2018-06-11T00:16:38.773Z,0
2018-06-11T00:17:40.430Z,0
2018-06-11T00:18:42.092Z,0
2018-06-11T00:19:43.738Z,0
2018-06-11T00:20:45.400Z,0
2018-06-11T00:21:47.060Z,0
2018-06-11T00:22:48.715Z,0
2018-06-11T00:23:50.373Z,0
2018-06-11T00:24:52.029Z,0
2018-06-11T00:25:53.687Z,0
2018-06-11T00:26:55.339Z,0
2018-06-11T00:27:56.998Z,0
2018-06-11T00:28:58.659Z,0
2018-06-11T00:30:00.315Z,0
2018-06-11T00:31:01.973Z,0
2018-06-11T00:32:03.632Z,0
2018-06-11T00:33:05.294Z,0
2018-06-11T00:34:06.941Z,0
2018-06-11T00:35:08.604Z,0
2018-06-11T00:36:10.262Z,0
2018-06-11T00:37:11.915Z,0
2018-06-11T00:38:13.581Z,0
2018-06-11T00:39:15.237Z,0
2018-06-11T00:40:16.917Z,0
2018-06-11T00:41:18.565Z,0
2018-06-11T00:42:20.224Z,0
2018-06-11T00:43:21.881Z,0
2018-06-11T00:44:23.534Z,0
2018-06-11T00:45:25.191Z,0
2018-06-11T00:46:26.857Z,0
2018-06-11T00:47:28.522Z,0
2018-06-11T00:48:30.166Z,0
2018-06-11T00:49:31.836Z,0
2018-06-11T00:50:33.502Z,0
2018-06-11T00:51:35.162Z,0
2018-06-11T00:52:36.826Z,0
2018-06-11T00:53:38.503Z,0
2018-06-11T00:54:40.217Z,0
2018-06-11T00:55:41.879Z,0
2018-06-11T00:56:43.544Z,0
2018-06-11T00:57:45.195Z,0
2018-06-11T00:58:46.849Z,0
2018-06-11T00:59:48.524Z,0
2018-06-11T01:00:50.175Z,0
2018-06-11T01:01:51.829Z,0
2018-06-11T01:02:53.483Z,0
2018-06-11T01:03:55.135Z,0
2018-06-11T01:04:56.793Z,0
2018-06-11T01:05:58.456Z,0
2018-06-11T01:07:00.130Z,0
2018-06-11T01:08:01.778Z,0
2018-06-11T01:09:03.441Z,0
2018-06-11T01:10:05.104Z,0
2018-06-11T01:11:06.754Z,0
2018-06-11T01:12:09.103Z,0
2018-06-11T01:13:10.763Z,0
2018-06-11T01:14:12.411Z,0
2018-06-11T01:15:14.077Z,0
2018-06-11T01:16:15.736Z,0
2018-06-11T01:17:17.394Z,0
2018-06-11T01:18:19.051Z,0
2018-06-11T01:19:20.700Z,0
2018-06-11T01:20:22.362Z,0
2018-06-11T01:21:24.016Z,0
2018-06-11T01:22:25.682Z,0
2018-06-11T01:23:27.331Z,0
2018-06-11T01:24:28.991Z,0
2018-06-11T01:25:30.641Z,0
2018-06-11T01:26:32.296Z,0
2018-06-11T01:27:33.957Z,0
2018-06-11T01:28:35.626Z,0
2018-06-11T01:29:37.288Z,0
2018-06-11T01:30:38.961Z,0
2018-06-11T01:31:40.628Z,0
2018-06-11T01:32:42.274Z,0
2018-06-11T01:33:43.934Z,0
2018-06-11T01:34:45.596Z,0
2018-06-11T01:35:47.252Z,0
2018-06-11T01:36:48.910Z,0
2018-06-11T01:37:50.573Z,0
2018-06-11T01:38:52.232Z,0
2018-06-11T01:39:53.888Z,0
2018-06-11T01:40:55.552Z,0
2018-06-11T01:41:57.204Z,0
2018-06-11T01:42:58.870Z,0
2018-06-11T01:44:00.522Z,0
2018-06-11T01:45:02.214Z,0
2018-06-11T01:46:04.502Z,0
2018-06-11T01:47:05.480Z,0
2018-06-11T01:48:07.142Z,0
2018-06-11T01:49:08.797Z,0
2018-06-11T01:50:10.458Z,0
2018-06-11T01:51:12.118Z,0
2018-06-11T01:52:13.769Z,0
2018-06-11T01:53:15.437Z,0
2018-06-11T01:54:17.088Z,0
2018-06-11T01:55:18.752Z,0
2018-06-11T02:01:36.463Z,0
2018-06-11T02:02:38.115Z,0
2018-06-11T02:03:39.756Z,0
2018-06-11T02:04:41.416Z,0
2018-06-11T02:05:43.071Z,0
2018-06-11T02:06:44.724Z,0
2018-06-11T02:07:46.379Z,0
2018-06-11T02:08:48.041Z,0
2018-06-11T02:09:49.697Z,0
2018-06-11T02:10:51.360Z,0
2018-06-11T02:11:53.000Z,0
2018-06-11T02:12:54.653Z,0
2018-06-11T02:13:56.309Z,0
2018-06-11T02:14:57.969Z,0
2018-06-11T02:15:59.623Z,0
2018-06-11T02:17:01.282Z,0
2018-06-11T02:18:02.933Z,0
2018-06-11T02:19:04.597Z,0
2018-06-11T02:20:06.251Z,0
2018-06-11T02:21:07.906Z,0
2018-06-11T02:22:09.568Z,0
2018-06-11T02:23:11.224Z,0
2018-06-11T02:24:12.879Z,0
2018-06-11T02:25:14.536Z,0
2018-06-11T02:26:16.197Z,0
2018-06-11T02:27:17.879Z,0
2018-06-11T02:28:19.542Z,0
2018-06-11T02:29:21.202Z,4
2018-06-11T02:30:22.855Z,4
2018-06-11T02:31:24.523Z,4
2018-06-11T02:32:26.159Z,0
2018-06-11T02:33:27.818Z,4
2018-06-11T02:34:29.471Z,4
2018-06-11T02:35:31.140Z,4
2018-06-11T02:36:32.788Z,4
2018-06-11T02:37:34.452Z,4
2018-06-11T02:38:36.103Z,4
2018-06-11T02:39:37.761Z,8
2018-06-11T02:40:39.439Z,8
2018-06-11T02:41:41.106Z,8
2018-06-11T02:42:42.769Z,8
2018-06-11T02:43:44.428Z,8
2018-06-11T02:44:46.085Z,12
2018-06-11T02:45:47.740Z,16
2018-06-11T02:46:49.398Z,16
2018-06-11T02:47:51.057Z,16
2018-06-11T02:48:52.718Z,16
2018-06-11T02:49:54.374Z,20
2018-06-11T02:50:56.062Z,20
2018-06-11T02:51:57.730Z,24
2018-06-11T02:52:59.371Z,28
2018-06-11T02:54:01.028Z,32
2018-06-11T02:55:02.701Z,32
2018-06-11T02:56:04.352Z,40
2018-06-11T02:57:06.009Z,44
2018-06-11T02:58:07.672Z,48
2018-06-11T02:59:09.325Z,52
2018-06-11T03:00:10.979Z,60
2018-06-11T03:01:12.639Z,72
2018-06-11T03:02:14.289Z,80
2018-06-11T03:03:15.945Z,88
2018-06-11T03:04:17.608Z,88
2018-06-11T03:05:19.270Z,96
2018-06-11T03:06:20.919Z,104
2018-06-11T03:07:22.579Z,112
2018-06-11T03:08:24.244Z,124
2018-06-11T03:09:25.915Z,136
2018-06-11T03:10:27.563Z,148
2018-06-11T03:11:29.226Z,164
2018-06-11T03:12:30.888Z,180
2018-06-11T03:13:32.558Z,200
2018-06-11T03:14:34.220Z,220
2018-06-11T03:15:35.930Z,240
2018-06-11T03:16:37.533Z,264
2018-06-11T03:17:39.221Z,288
2018-06-11T03:18:40.883Z,316
2018-06-11T03:19:42.543Z,344
2018-06-11T03:20:44.203Z,372
2018-06-11T03:21:45.861Z,404
2018-06-11T03:22:47.525Z,432
2018-06-11T03:23:49.188Z,460
2018-06-11T03:24:50.845Z,484
2018-06-11T03:25:52.500Z,504
2018-06-11T03:26:54.176Z,528
2018-06-11T03:27:55.820Z,552
2018-06-11T03:28:57.480Z,568
2018-06-11T03:29:59.152Z,588
2018-06-11T03:31:00.821Z,612
2018-06-11T03:32:02.483Z,628
2018-06-11T03:33:04.153Z,640
2018-06-11T03:34:05.828Z,668
2018-06-11T03:35:07.490Z,708
2018-06-11T03:36:09.182Z,756
2018-06-11T03:37:10.857Z,804
2018-06-11T03:38:12.516Z,860
2018-06-11T03:39:14.178Z,908
2018-06-11T03:40:15.840Z,948
2018-06-11T03:41:17.505Z,980
2018-06-11T03:42:19.186Z,996
2018-06-11T03:43:20.861Z,1008
2018-06-11T03:44:22.508Z,1032
2018-06-11T03:45:24.166Z,1064
2018-06-11T03:46:25.825Z,1108
2018-06-11T03:47:27.492Z,1148
2018-06-11T03:48:29.147Z,1196
2018-06-11T03:49:30.817Z,1248
2018-06-11T03:50:32.480Z,1296
2018-06-11T03:51:34.135Z,1352
2018-06-11T03:52:35.803Z,1416
2018-06-11T03:53:37.463Z,1476
2018-06-11T03:54:39.162Z,1540
2018-06-11T03:55:40.827Z,1588
2018-06-11T03:56:42.481Z,1652
2018-06-11T03:57:44.137Z,1712
2018-06-11T03:58:45.798Z,1776
2018-06-11T03:59:47.467Z,1860
2018-06-11T04:00:49.203Z,1932
2018-06-11T04:01:50.757Z,2008
2018-06-11T04:02:52.426Z,2048
2018-06-11T04:03:54.091Z,2112
2018-06-11T04:04:55.764Z,2192
2018-06-11T04:05:57.438Z,2292
2018-06-11T04:06:59.106Z,2420
2018-06-11T04:08:00.774Z,2544
2018-06-11T04:09:02.431Z,2640
2018-06-11T04:10:04.100Z,2752
2018-06-11T04:11:05.834Z,2848
2018-06-11T04:12:07.430Z,2936
2018-06-11T04:13:09.097Z,2984
2018-06-11T04:14:10.766Z,3064
2018-06-11T04:15:12.429Z,3164
2018-06-11T04:16:14.080Z,3272
2018-06-11T04:17:15.758Z,3428
2018-06-11T04:18:17.422Z,3652
2018-06-11T04:19:19.075Z,3984
2018-06-11T04:20:20.882Z,4376
2018-06-11T04:21:22.541Z,4688
2018-06-11T04:22:24.222Z,4868
2018-06-11T04:23:25.879Z,4904
2018-06-11T04:24:27.544Z,4876
2018-06-11T04:25:29.205Z,4852
2018-06-11T04:26:30.873Z,4892
2018-06-11T04:27:32.548Z,5052
2018-06-11T04:28:34.203Z,5200
2018-06-11T04:29:35.867Z,5168
2018-06-11T04:30:37.565Z,5052
2018-06-11T04:31:39.233Z,4980
2018-06-11T04:32:40.900Z,5060
2018-06-11T04:33:42.559Z,5204
2018-06-11T04:34:44.215Z,5340
2018-06-11T04:35:45.885Z,5452
2018-06-11T04:36:47.564Z,5404
2018-06-11T04:37:49.232Z,5256
2018-06-11T04:38:50.892Z,5164
2018-06-11T04:39:52.572Z,5232
2018-06-11T04:40:54.228Z,5476
2018-06-11T04:41:55.891Z,5856
2018-06-11T04:42:57.553Z,6280
2018-06-11T04:43:59.229Z,6592
2018-06-11T04:45:00.914Z,6748
2018-06-11T04:46:02.576Z,6836
2018-06-11T04:47:04.253Z,7120
2018-06-11T04:48:05.914Z,7408
2018-06-11T04:49:07.576Z,7160
2018-06-11T04:50:09.231Z,6980
2018-06-11T04:51:10.885Z,7268
2018-06-11T04:52:12.554Z,7708
2018-06-11T04:53:14.206Z,8980
2018-06-11T04:54:15.882Z,9776
2018-06-11T04:55:17.553Z,10304
2018-06-11T04:56:19.222Z,10500
2018-06-11T04:57:20.895Z,10844
2018-06-11T04:58:22.556Z,11008
2018-06-11T04:59:24.228Z,11504
2018-06-11T05:00:25.889Z,11360
2018-06-11T05:01:27.564Z,11340
2018-06-11T05:02:29.237Z,11276
2018-06-11T05:03:30.890Z,12324
2018-06-11T05:04:32.570Z,12876
2018-06-11T05:05:34.228Z,12848
2018-06-11T05:06:35.905Z,13012
2018-06-11T05:07:37.614Z,13832
2018-06-11T05:08:39.321Z,14240
2018-06-11T05:09:41.004Z,14720
2018-06-11T05:10:42.652Z,15328
2018-06-11T05:11:44.331Z,16152
2018-06-11T05:12:45.987Z,17280
2018-06-11T05:13:47.654Z,18208
2018-06-11T05:14:49.331Z,17504
2018-06-11T05:15:51.004Z,16260
2018-06-11T05:16:52.674Z,14728
2018-06-11T05:17:54.341Z,11808
2018-06-11T05:18:56.027Z,10324
2018-06-11T05:19:57.696Z,9552
2018-06-11T05:20:59.358Z,9056
2018-06-11T05:22:01.013Z,8836
2018-06-11T05:23:02.761Z,8988
2018-06-11T05:24:04.429Z,9500
2018-06-11T05:25:06.137Z,10132
2018-06-11T05:26:07.786Z,10564
2018-06-11T05:27:09.491Z,10476
2018-06-11T05:28:11.136Z,10032
2018-06-11T05:29:12.802Z,9804
2018-06-11T05:30:14.477Z,9556
2018-06-11T05:31:16.135Z,9624
2018-06-11T05:32:17.802Z,9836
2018-06-11T05:33:45.648Z,10288
2018-06-11T05:34:48.065Z,11552
2018-06-11T05:35:49.696Z,12312
2018-06-11T05:36:52.057Z,12576
2018-06-11T05:37:55.351Z,12116
2018-06-11T05:38:59.435Z,11568
2018-06-11T05:40:01.106Z,11296
2018-06-11T05:41:02.783Z,11536
2018-06-11T05:42:04.457Z,12048
2018-06-11T05:43:06.121Z,12428
2018-06-11T05:44:07.798Z,12900
2018-06-11T05:45:11.164Z,12984
2018-06-11T05:46:12.840Z,13140
2018-06-11T05:47:14.505Z,13456
2018-06-11T05:48:16.197Z,14060
2018-06-11T05:49:18.670Z,15012
2018-06-11T05:50:20.335Z,15828
2018-06-11T05:51:21.995Z,16568
2018-06-11T05:52:23.684Z,16964
2018-06-11T05:53:25.394Z,17012
2018-06-11T05:54:27.057Z,16780
2018-06-11T06:01:07.739Z,15408
2018-06-11T06:02:09.400Z,15068
2018-06-11T06:03:11.061Z,14180
2018-06-11T06:04:12.728Z,13764
2018-06-11T06:05:14.401Z,13372
2018-06-11T06:06:16.065Z,13040
2018-06-11T06:07:17.760Z,12964
2018-06-11T06:08:19.411Z,12900
2018-06-11T06:09:21.080Z,12808
2018-06-11T06:10:22.741Z,12936
2018-06-11T06:11:24.411Z,13384
2018-06-11T06:12:26.082Z,13868
2018-06-11T06:13:27.750Z,13936
2018-06-11T06:14:29.512Z,13020
2018-06-11T06:15:31.187Z,12468
2018-06-11T06:16:32.858Z,12244
2018-06-11T06:17:34.527Z,12184
2018-06-11T06:18:36.199Z,12136
2018-06-11T06:19:37.890Z,12124
2018-06-11T06:20:39.527Z,12092
2018-06-11T06:21:41.197Z,12204
2018-06-11T06:22:43.140Z,12256
2018-06-11T06:23:44.809Z,12116
2018-06-11T06:24:46.470Z,11760
2018-06-11T06:25:48.135Z,11396
2018-06-11T06:26:49.892Z,11208
2018-06-11T06:27:51.459Z,11092
2018-06-11T06:28:53.123Z,11144
2018-06-11T06:29:54.795Z,11396
2018-06-11T06:30:56.461Z,11756
2018-06-11T06:31:58.124Z,12128
2018-06-11T06:32:59.796Z,12388
2018-06-11T06:34:01.460Z,12756
2018-06-11T06:35:03.141Z,12876
2018-06-11T06:36:04.831Z,12476
2018-06-11T06:37:06.491Z,12036
2018-06-11T06:38:08.161Z,11660
2018-06-11T06:39:09.829Z,11164
2018-06-11T06:40:11.512Z,10744
2018-06-11T06:41:13.185Z,10484
2018-06-11T06:42:14.864Z,10392
2018-06-11T06:43:16.532Z,10412
2018-06-11T06:44:18.200Z,10516
2018-06-11T06:45:19.880Z,10680
2018-06-11T06:46:21.552Z,10896
2018-06-11T06:47:23.346Z,11200
2018-06-11T06:48:25.004Z,11680
2018-06-11T06:49:26.670Z,12232
2018-06-11T06:50:28.330Z,12556
2018-06-11T06:51:29.998Z,12592
2018-06-11T06:52:31.693Z,12768
2018-06-11T06:53:33.355Z,13072
2018-06-11T06:54:35.018Z,13412
2018-06-11T06:55:36.682Z,13792
2018-06-11T06:56:38.374Z,14532
2018-06-11T06:57:40.117Z,16232
2018-06-11T06:58:41.792Z,18976
2018-06-11T06:59:43.454Z,21760
2018-06-11T07:00:45.123Z,23936
2018-06-11T07:01:46.791Z,25248
2018-06-11T07:02:48.489Z,25504
2018-06-11T07:03:50.128Z,25312
2018-06-11T07:04:51.802Z,25056
2018-06-11T07:05:53.472Z,24576
2018-06-11T07:06:55.148Z,24448
2018-06-11T07:07:56.813Z,24064
2018-06-11T07:08:58.492Z,23808
2018-06-11T07:10:00.151Z,24288
2018-06-11T07:11:01.818Z,25216
2018-06-11T07:12:03.547Z,25248
2018-06-11T07:13:05.219Z,27616
2018-06-11T07:14:06.895Z,21216
2018-06-11T07:15:08.565Z,21728
2018-06-11T07:16:10.241Z,25696
2018-06-11T07:17:11.901Z,28800
2018-06-11T07:18:13.572Z,28384
2018-06-11T07:19:15.234Z,26560
2018-06-11T07:20:16.992Z,24832
2018-06-11T07:21:18.545Z,24832
2018-06-11T07:22:20.222Z,25984
2018-06-11T07:23:21.896Z,27744
2018-06-11T07:24:23.602Z,31776
2018-06-11T07:25:25.268Z,50592
2018-06-11T07:26:26.936Z,44960
2018-06-11T07:27:28.607Z,43616
2018-06-11T07:28:30.272Z,63616
2018-06-11T07:29:31.959Z,45952
2018-06-11T07:30:33.627Z,42592
2018-06-11T07:31:35.408Z,39776
2018-06-11T07:32:37.115Z,37440
2018-06-11T07:33:38.740Z,38496
2018-06-11T07:34:40.434Z,39168
2018-06-11T07:35:42.108Z,41120
2018-06-11T07:36:43.785Z,43008
2018-06-11T07:37:45.452Z,45536
2018-06-11T07:38:47.134Z,45536
2018-06-11T07:39:48.804Z,44128
2018-06-11T07:40:50.492Z,46048
2018-06-11T07:41:52.166Z,46240
2018-06-11T07:42:53.841Z,47200
2018-06-11T07:43:55.525Z,56768
2018-06-11T07:44:57.191Z,60512
2018-06-11T07:45:58.883Z,50944
2018-06-11T07:47:00.580Z,49792
2018-06-11T07:48:02.281Z,59776
2018-06-11T07:49:03.947Z,45504
2018-06-11T07:50:05.589Z,40736
2018-06-11T07:51:07.261Z,38240
2018-06-11T07:52:08.948Z,36416
2018-06-11T07:53:10.626Z,34720
2018-06-11T07:54:12.305Z,32704
2018-06-11T07:55:13.981Z,30944
2018-06-11T07:56:15.651Z,29824
2018-06-11T07:57:17.332Z,29696
2018-06-11T07:58:19.002Z,30336
2018-06-11T07:59:20.698Z,31520
2018-06-11T08:00:22.382Z,32928
2018-06-11T08:01:24.128Z,34560
2018-06-11T08:02:25.757Z,36480
2018-06-11T08:03:27.443Z,37536
2018-06-11T08:04:29.116Z,39840
2018-06-11T08:05:30.789Z,43424
2018-06-11T08:06:32.461Z,44832
2018-06-11T08:07:34.211Z,50944
2018-06-11T08:08:35.803Z,49344
2018-06-11T08:09:37.497Z,52768
2018-06-11T08:10:39.214Z,56192
2018-06-11T08:11:40.891Z,57120
2018-06-11T08:12:42.573Z,62496
2018-06-11T08:13:44.283Z,64736
2018-06-11T08:14:45.899Z,72000
2018-06-11T08:15:47.619Z,93376
2018-06-11T08:16:49.294Z,67264
2018-06-11T08:17:50.970Z,49536
2018-06-11T08:18:52.634Z,55744
2018-06-11T08:19:54.329Z,47072
2018-06-11T08:20:56.986Z,66432
2018-06-11T08:21:58.550Z,55616
2018-06-11T08:23:00.305Z,53664
2018-06-11T08:24:01.985Z,76512
2018-06-11T08:25:03.675Z,44704
2018-06-11T08:26:05.356Z,77888
2018-06-11T08:27:07.033Z,74592
2018-06-11T08:28:08.704Z,64928
2018-06-11T08:29:10.374Z,93728
2018-06-11T08:30:12.054Z,52128
2018-06-11T08:31:13.754Z,70400
2018-06-11T08:32:15.509Z,92832
2018-06-11T08:33:17.178Z,98368
2018-06-11T08:34:18.917Z,91968
2018-06-11T08:35:20.594Z,43776
2018-06-11T08:36:22.268Z,38592
2018-06-11T08:37:23.994Z,36032
2018-06-11T08:38:25.713Z,33632
2018-06-11T08:39:27.440Z,30944
2018-06-11T08:40:29.449Z,29312
2018-06-11T08:41:31.288Z,29824
2018-06-11T08:42:32.974Z,30464
2018-06-11T08:43:35.349Z,31520
2018-06-11T08:44:37.030Z,32032
2018-06-11T08:45:38.734Z,32064
2018-06-11T08:46:40.404Z,32064
2018-06-11T08:47:42.139Z,32896
2018-06-11T08:48:43.876Z,35680
2018-06-11T08:49:45.552Z,40544
2018-06-11T08:50:47.230Z,45216
2018-06-11T08:51:48.899Z,54080
2018-06-11T08:52:50.594Z,99392
2018-06-11T08:53:52.267Z,103104
2018-06-11T08:54:53.945Z,101408
2018-06-11T08:55:55.614Z,75104
2018-06-11T08:56:57.285Z,62496
2018-06-11T08:57:58.966Z,63808
2018-06-11T08:59:00.668Z,73440
2018-06-11T09:00:02.379Z,62848
2018-06-11T09:01:04.023Z,66880
2018-06-11T09:02:05.704Z,70336
2018-06-11T09:03:07.379Z,69536
2018-06-11T09:04:09.052Z,70816
2018-06-11T09:05:10.724Z,70400
2018-06-11T09:06:12.400Z,65632
2018-06-11T09:07:14.081Z,63648
2018-06-11T09:08:15.759Z,70528
2018-06-11T09:09:17.426Z,89632
2018-06-11T09:10:19.096Z,98464
2018-06-11T09:11:20.777Z,140512
2018-06-11T09:12:22.455Z,157632
2018-06-11T09:13:24.144Z,142560
2018-06-11T09:14:25.837Z,131360
2018-06-11T09:15:27.530Z,143328
2018-06-11T09:16:29.225Z,148128
2018-06-11T09:17:31.068Z,87296
2018-06-11T09:18:32.795Z,70208
2018-06-11T09:19:34.430Z,152864
2018-06-11T09:20:36.288Z,102464
2018-06-11T09:21:37.992Z,94176
2018-06-11T09:22:39.679Z,100672
2018-06-11T09:23:41.355Z,54176
2018-06-11T09:24:43.084Z,48896
2018-06-11T09:25:44.763Z,48256
2018-06-11T09:26:46.445Z,46144
2018-06-11T09:27:48.126Z,42528
2018-06-11T09:28:49.805Z,39328
2018-06-11T09:29:51.524Z,38528
2018-06-11T09:30:53.203Z,40224
2018-06-11T09:31:54.877Z,45248
2018-06-11T09:32:56.561Z,47296
2018-06-11T09:33:58.246Z,46432
2018-06-11T09:34:59.929Z,42240
2018-06-11T09:36:01.656Z,40000
2018-06-11T09:37:03.292Z,40896
2018-06-11T09:38:04.979Z,39616
2018-06-11T09:39:06.670Z,37472
2018-06-11T09:40:08.353Z,35648
2018-06-11T09:41:10.044Z,33504
2018-06-11T09:42:11.715Z,30720
2018-06-11T09:43:13.411Z,28704
2018-06-11T09:44:15.105Z,27424
2018-06-11T09:45:16.756Z,26336
2018-06-11T09:46:18.435Z,24960
2018-06-11T09:47:20.129Z,24160
2018-06-11T09:48:21.803Z,24192
2018-06-11T09:49:23.483Z,24224
2018-06-11T09:50:25.162Z,24160
2018-06-11T09:51:26.853Z,24160
2018-06-11T09:52:28.527Z,24064
2018-06-11T09:53:30.195Z,23744
2018-06-11T09:54:31.953Z,24288
2018-06-11T09:55:33.635Z,26080
2018-06-11T10:01:56.300Z,68000
2018-06-11T10:02:57.966Z,77312
2018-06-11T10:03:59.635Z,59040
2018-06-11T10:05:01.350Z,53536
2018-06-11T10:06:03.023Z,54080
2018-06-11T10:07:04.725Z,56288
2018-06-11T10:08:06.402Z,57344
2018-06-11T10:09:08.127Z,52640
2018-06-11T10:10:09.758Z,48320
2018-06-11T10:11:11.446Z,50848
2018-06-11T10:12:13.183Z,51904
2018-06-11T10:13:14.787Z,52864
2018-06-11T10:14:16.461Z,44992
2018-06-11T10:15:18.131Z,39168
2018-06-11T10:16:19.810Z,36224
2018-06-11T10:17:21.834Z,33056
2018-06-11T10:18:23.926Z,31744
2018-06-11T10:19:25.790Z,29952
2018-06-11T10:20:27.745Z,26880
2018-06-11T10:21:29.532Z,23456
2018-06-11T10:22:31.412Z,20704
2018-06-11T10:23:32.884Z,19104
2018-06-11T10:24:34.690Z,18880
2018-06-11T10:25:36.513Z,18880
2018-06-11T10:26:38.409Z,18720
2018-06-11T10:27:40.038Z,18688
2018-06-11T10:28:41.723Z,18560
2018-06-11T10:29:43.413Z,19072
2018-06-11T10:30:45.088Z,21280
2018-06-11T10:31:46.764Z,25440
2018-06-11T10:32:48.449Z,32768
2018-06-11T10:33:50.467Z,39904
2018-06-11T10:34:52.430Z,53280
2018-06-11T10:35:53.987Z,61472
2018-06-11T10:36:55.747Z,59424
2018-06-11T10:37:57.421Z,52928
2018-06-11T10:38:59.095Z,52192
2018-06-11T10:40:00.780Z,48640
2018-06-11T10:41:02.455Z,44896
2018-06-11T10:42:04.130Z,41888
2018-06-11T10:43:05.809Z,39936
2018-06-11T10:44:07.487Z,38720
2018-06-11T10:45:09.175Z,37504
2018-06-11T10:46:11.083Z,36192
2018-06-11T10:47:12.730Z,35744
2018-06-11T10:48:14.408Z,35136
2018-06-11T10:49:16.081Z,34496
2018-06-11T10:50:17.755Z,33920
2018-06-11T10:51:19.434Z,33568
2018-06-11T10:52:21.109Z,32320
2018-06-11T10:53:22.803Z,30656
2018-06-11T10:54:24.473Z,29248
2018-06-11T10:55:26.150Z,27968
2018-06-11T10:56:27.822Z,26944
2018-06-11T10:57:29.481Z,25728
2018-06-11T10:58:31.164Z,23584
2018-06-11T10:59:32.832Z,21376
2018-06-11T11:00:36.048Z,20320
2018-06-11T11:01:37.700Z,20448
2018-06-11T11:02:39.399Z,21344
2018-06-11T11:03:41.069Z,22464
2018-06-11T11:04:42.755Z,23584
2018-06-11T11:05:44.425Z,24768
2018-06-11T11:06:46.107Z,25824
2018-06-11T11:07:47.825Z,26624
2018-06-11T11:08:49.507Z,26752
2018-06-11T11:09:51.118Z,27168
2018-06-11T11:10:52.791Z,28224
2018-06-11T11:11:54.461Z,29472
2018-06-11T11:12:56.126Z,30080
2018-06-11T11:13:57.834Z,30752
2018-06-11T11:14:59.510Z,31648
2018-06-11T11:16:01.194Z,32864
2018-06-11T11:17:02.865Z,34272
2018-06-11T11:18:04.527Z,35968
2018-06-11T11:19:06.201Z,37152
2018-06-11T11:20:07.873Z,37024
2018-06-11T11:21:09.552Z,36224
2018-06-11T11:22:11.223Z,34656
2018-06-11T11:23:12.899Z,32832
2018-06-11T11:24:14.575Z,31200
2018-06-11T11:25:16.564Z,29984
2018-06-11T11:26:18.260Z,30080
2018-06-11T11:27:19.931Z,30880
2018-06-11T11:28:21.607Z,32032
2018-06-11T11:29:23.278Z,32928
2018-06-11T11:30:24.948Z,33920
2018-06-11T11:31:26.627Z,35072
2018-06-11T11:32:28.303Z,35392
2018-06-11T11:33:29.986Z,35264
2018-06-11T11:34:31.666Z,35360
2018-06-11T11:35:33.345Z,35968
2018-06-11T11:36:35.021Z,37568
2018-06-11T11:37:36.750Z,40192
2018-06-11T11:38:38.445Z,37792
2018-06-11T11:39:40.103Z,37856
2018-06-11T11:40:41.781Z,37408
2018-06-11T11:41:43.518Z,36960
2018-06-11T11:42:45.183Z,37408
2018-06-11T11:43:46.890Z,38816
2018-06-11T11:44:48.569Z,39392
2018-06-11T11:45:50.243Z,38592
2018-06-11T11:46:51.913Z,38400
2018-06-11T11:47:53.596Z,39456
2018-06-11T11:48:55.274Z,40736
2018-06-11T11:49:56.951Z,41760
2018-06-11T11:50:58.635Z,43392
2018-06-11T11:52:00.307Z,46080
2018-06-11T11:53:01.988Z,53312
2018-06-11T11:54:03.668Z,52064
2018-06-11T11:55:05.354Z,66496
2018-06-11T11:56:07.011Z,73184
2018-06-11T11:57:08.704Z,137472
2018-06-11T11:58:10.375Z,116864
2018-06-11T11:59:12.060Z,115712
2018-06-11T12:00:13.722Z,79744
2018-06-11T12:01:15.417Z,80672
2018-06-11T12:02:17.112Z,92032
2018-06-11T12:03:18.769Z,87584
2018-06-11T12:04:20.444Z,80864
2018-06-11T12:05:22.118Z,76064
2018-06-11T12:06:23.800Z,87968
2018-06-11T12:07:25.500Z,76768
2018-06-11T12:08:27.186Z,73408
2018-06-11T12:09:28.867Z,74752
2018-06-11T12:10:30.545Z,58048
2018-06-11T12:11:32.336Z,50112
2018-06-11T12:12:34.008Z,44832
2018-06-11T12:13:35.689Z,41696
2018-06-11T12:14:37.373Z,41248
2018-06-11T12:15:39.077Z,43232
2018-06-11T12:16:40.755Z,45056
2018-06-11T12:17:42.432Z,42752
2018-06-11T12:18:44.108Z,41920
2018-06-11T12:19:45.780Z,43648
2018-06-11T12:20:47.464Z,48736
2018-06-11T12:21:49.141Z,52896
2018-06-11T12:22:50.820Z,55168
2018-06-11T12:23:52.509Z,61952
2018-06-11T12:24:54.183Z,79456
2018-06-11T12:25:55.865Z,75168
2018-06-11T12:26:57.534Z,57728
2018-06-11T12:27:59.208Z,47872
2018-06-11T12:29:00.907Z,40064
2018-06-11T12:30:02.603Z,35136
2018-06-11T12:31:04.279Z,34080
2018-06-11T12:32:05.967Z,36160
2018-06-11T12:33:07.650Z,40384
2018-06-11T12:34:09.335Z,45792
2018-06-11T12:35:11.021Z,47040
2018-06-11T12:36:12.692Z,45920
2018-06-11T12:37:14.370Z,43456
2018-06-11T12:38:16.043Z,40032
2018-06-11T12:39:17.728Z,36384
2018-06-11T12:40:19.417Z,34016
2018-06-11T12:41:21.101Z,32896
2018-06-11T12:42:22.782Z,31936
2018-06-11T12:43:24.460Z,33376
2018-06-11T12:44:26.140Z,35104
2018-06-11T12:45:27.840Z,35904
2018-06-11T12:46:29.592Z,35744
2018-06-11T12:47:31.287Z,33440
2018-06-11T12:48:32.995Z,32576
2018-06-11T12:49:34.663Z,33984
2018-06-11T12:50:36.335Z,36096
2018-06-11T12:51:38.032Z,37984
2018-06-11T12:52:39.747Z,40128
2018-06-11T12:53:41.411Z,39712
2018-06-11T12:54:43.097Z,37344
2018-06-11T12:55:44.766Z,34976
2018-06-11T12:56:46.463Z,32288
2018-06-11T12:57:48.217Z,29760
2018-06-11T12:58:49.891Z,27680
2018-06-11T12:59:51.576Z,26560
2018-06-11T13:00:53.235Z,27904
2018-06-11T13:01:54.913Z,32032
2018-06-11T13:02:56.589Z,38528
2018-06-11T13:03:58.274Z,36672
2018-06-11T13:04:59.962Z,35232
2018-06-11T13:06:01.626Z,32416
2018-06-11T13:07:03.301Z,30400
2018-06-11T13:08:04.962Z,28896
2018-06-11T13:09:06.655Z,27968
2018-06-11T13:10:08.305Z,28320
2018-06-11T13:11:10.775Z,29984
2018-06-11T13:12:12.454Z,32384
2018-06-11T13:13:14.149Z,35392
2018-06-11T13:14:15.805Z,37216
2018-06-11T13:15:17.481Z,38016
2018-06-11T13:16:19.151Z,37440
2018-06-11T13:17:20.828Z,36992
2018-06-11T13:18:22.531Z,37600
2018-06-11T13:19:24.216Z,38336
2018-06-11T13:20:25.898Z,38784
2018-06-11T13:21:27.599Z,40512
2018-06-11T13:22:29.286Z,46464
2018-06-11T13:23:30.966Z,53504
2018-06-11T13:24:32.635Z,54912
2018-06-11T13:25:34.306Z,55424
2018-06-11T13:26:36.011Z,57216
2018-06-11T13:27:37.709Z,56064
2018-06-11T13:28:39.485Z,54176
2018-06-11T13:29:41.173Z,53600
2018-06-11T13:30:42.861Z,51872
2018-06-11T13:31:44.556Z,50560
2018-06-11T13:32:46.245Z,48352
2018-06-11T13:33:47.933Z,46688
2018-06-11T13:34:49.605Z,43616
2018-06-11T13:35:51.287Z,42176
2018-06-11T13:36:53.008Z,40928
2018-06-11T13:37:54.704Z,40064
2018-06-11T13:38:56.400Z,39104
2018-06-11T13:39:58.092Z,38528
2018-06-11T13:40:59.762Z,37856
2018-06-11T13:42:01.441Z,37216
2018-06-11T13:43:03.128Z,36576
2018-06-11T13:44:04.820Z,36320
2018-06-11T13:45:06.508Z,36064
2018-06-11T13:46:08.188Z,35808
2018-06-11T13:47:09.847Z,35584
2018-06-11T13:48:11.509Z,35264
2018-06-11T13:49:13.337Z,35072
2018-06-11T13:50:15.031Z,34816
2018-06-11T13:51:16.632Z,34592
2018-06-11T13:52:18.328Z,34336
2018-06-11T13:53:19.998Z,33984
2018-06-11T13:54:21.671Z,33568
2018-06-11T13:55:23.399Z,33120
2018-06-11T14:01:33.704Z,30336
2018-06-11T14:02:35.365Z,29920
2018-06-11T14:03:37.030Z,29504